sensor_id;sensor_type;location;lat;lon;timestamp;pressure;altitude;pressure_sealevel;temperature;humidity
54936;BME280;40838;50.676;7.838;2023-04-05T00:02:23;99033.31;;;-6.43;100.00
54936;BME280;40838;50.676;7.838;2023-04-05T00:04:54;99032.19;;;-6.41;100.00
54936;BME280;40838;50.676;7.838;2023-04-05T00:07:22;99027.59;;;-6.29;100.00
54936;BME280;40838;50.676;7.838;2023-04-05T00:09:52;99030.59;;;-6.16;100.00
54936;BME280;40838;50.676;7.838;2023-04-05T00:12:19;99033.72;;;-6.30;100.00
54936;BME280;40838;50.676;7.838;2023-04-05T00:14:46;99027.78;;;-6.22;100.00
54936;BME280;40838;50.676;7.838;2023-04-05T00:17:13;99028.28;;;-6.19;100.00
54936;BME280;40838;50.676;7.838;2023-04-05T00:19:40;99022.09;;;-6.26;100.00
54936;BME280;40838;50.676;7.838;2023-04-05T00:22:07;99020.44;;;-6.27;100.00
54936;BME280;40838;50.676;7.838;2023-04-05T00:24:35;99025.63;;;-6.27;100.00
54936;BME280;40838;50.676;7.838;2023-04-05T00:27:07;99027.41;;;-6.28;100.00
54936;BME280;40838;50.676;7.838;2023-04-05T00:29:34;99016.16;;;-6.36;100.00
54936;BME280;40838;50.676;7.838;2023-04-05T00:32:03;99018.94;;;-6.38;100.00
54936;BME280;40838;50.676;7.838;2023-04-05T00:34:30;99012.47;;;-6.34;100.00
54936;BME280;40838;50.676;7.838;2023-04-05T00:36:58;99010.88;;;-6.27;100.00
54936;BME280;40838;50.676;7.838;2023-04-05T00:39:25;99012.34;;;-6.50;100.00
54936;BME280;40838;50.676;7.838;2023-04-05T00:41:52;99011.09;;;-6.46;100.00
54936;BME280;40838;50.676;7.838;2023-04-05T00:44:20;99011.28;;;-6.39;100.00
54936;BME280;40838;50.676;7.838;2023-04-05T00:46:47;99004.09;;;-6.28;100.00
54936;BME280;40838;50.676;7.838;2023-04-05T00:49:14;99002.97;;;-6.25;100.00
54936;BME280;40838;50.676;7.838;2023-04-05T00:51:42;99007.19;;;-6.86;100.00
54936;BME280;40838;50.676;7.838;2023-04-05T00:54:09;99003.94;;;-7.33;100.00
54936;BME280;40838;50.676;7.838;2023-04-05T00:56:37;98997.22;;;-7.26;100.00
54936;BME280;40838;50.676;7.838;2023-04-05T00:59:04;98996.31;;;-7.35;100.00
54936;BME280;40838;50.676;7.838;2023-04-05T01:01:34;98993.44;;;-7.32;100.00
54936;BME280;40838;50.676;7.838;2023-04-05T01:04:03;98996.38;;;-7.45;100.00
54936;BME280;40838;50.676;7.838;2023-04-05T01:06:39;98990.50;;;-7.37;100.00
54936;BME280;40838;50.676;7.838;2023-04-05T01:09:16;98988.03;;;-7.39;100.00
54936;BME280;40838;50.676;7.838;2023-04-05T01:11:44;98988.84;;;-7.38;100.00
54936;BME280;40838;50.676;7.838;2023-04-05T01:14:13;98987.31;;;-7.31;100.00
54936;BME280;40838;50.676;7.838;2023-04-05T01:16:41;98988.25;;;-7.32;100.00
54936;BME280;40838;50.676;7.838;2023-04-05T01:19:08;98991.28;;;-7.37;100.00
54936;BME280;40838;50.676;7.838;2023-04-05T01:21:59;98983.44;;;-7.45;100.00
54936;BME280;40838;50.676;7.838;2023-04-05T01:24:48;98989.19;;;-7.51;100.00
54936;BME280;40838;50.676;7.838;2023-04-05T01:27:31;98989.88;;;-7.49;100.00
54936;BME280;40838;50.676;7.838;2023-04-05T01:30:08;98984.81;;;-7.50;100.00
54936;BME280;40838;50.676;7.838;2023-04-05T01:32:45;98983.28;;;-7.71;100.00
54936;BME280;40838;50.676;7.838;2023-04-05T01:35:21;98981.41;;;-7.78;100.00
54936;BME280;40838;50.676;7.838;2023-04-05T01:37:54;98980.88;;;-7.72;100.00
54936;BME280;40838;50.676;7.838;2023-04-05T01:40:26;98983.75;;;-7.85;100.00
54936;BME280;40838;50.676;7.838;2023-04-05T01:42:53;98986.06;;;-7.82;100.00
54936;BME280;40838;50.676;7.838;2023-04-05T01:45:21;98984.03;;;-7.88;100.00
54936;BME280;40838;50.676;7.838;2023-04-05T01:47:48;98986.81;;;-7.99;100.00
54936;BME280;40838;50.676;7.838;2023-04-05T01:50:17;98986.03;;;-8.10;100.00
54936;BME280;40838;50.676;7.838;2023-04-05T01:52:45;98978.19;;;-8.27;100.00
54936;BME280;40838;50.676;7.838;2023-04-05T01:55:11;98977.91;;;-8.34;100.00
54936;BME280;40838;50.676;7.838;2023-04-05T01:57:38;98979.31;;;-8.40;100.00
54936;BME280;40838;50.676;7.838;2023-04-05T02:00:06;98983.78;;;-8.42;100.00
54936;BME280;40838;50.676;7.838;2023-04-05T02:02:39;98965.28;;;-8.37;100.00
54936;BME280;40838;50.676;7.838;2023-04-05T02:05:07;98974.69;;;-8.36;100.00
54936;BME280;40838;50.676;7.838;2023-04-05T02:07:35;98966.25;;;-8.48;100.00
54936;BME280;40838;50.676;7.838;2023-04-05T02:10:02;98964.78;;;-8.51;100.00
54936;BME280;40838;50.676;7.838;2023-04-05T02:12:29;98966.41;;;-8.59;100.00
54936;BME280;40838;50.676;7.838;2023-04-05T02:14:56;98959.06;;;-8.64;100.00
54936;BME280;40838;50.676;7.838;2023-04-05T02:17:23;98959.34;;;-8.57;100.00
54936;BME280;40838;50.676;7.838;2023-04-05T02:19:52;98968.28;;;-8.52;100.00
54936;BME280;40838;50.676;7.838;2023-04-05T02:22:19;98971.97;;;-8.64;100.00
54936;BME280;40838;50.676;7.838;2023-04-05T02:24:45;98967.09;;;-8.77;100.00
54936;BME280;40838;50.676;7.838;2023-04-05T02:27:12;98974.88;;;-8.86;100.00
54936;BME280;40838;50.676;7.838;2023-04-05T02:29:39;98972.69;;;-8.91;100.00
54936;BME280;40838;50.676;7.838;2023-04-05T02:32:06;98970.78;;;-8.89;100.00
54936;BME280;40838;50.676;7.838;2023-04-05T02:34:33;98967.38;;;-8.80;100.00
54936;BME280;40838;50.676;7.838;2023-04-05T02:37:02;98961.25;;;-8.79;100.00
54936;BME280;40838;50.676;7.838;2023-04-05T02:39:29;98964.50;;;-8.67;100.00
54936;BME280;40838;50.676;7.838;2023-04-05T02:41:56;98960.84;;;-8.64;100.00
54936;BME280;40838;50.676;7.838;2023-04-05T02:44:23;98947.09;;;-8.65;100.00
54936;BME280;40838;50.676;7.838;2023-04-05T02:46:52;98954.06;;;-8.65;100.00
54936;BME280;40838;50.676;7.838;2023-04-05T02:49:25;98946.97;;;-8.54;100.00
54936;BME280;40838;50.676;7.838;2023-04-05T02:51:53;98953.75;;;-8.53;100.00
54936;BME280;40838;50.676;7.838;2023-04-05T02:54:22;98944.38;;;-8.54;100.00
54936;BME280;40838;50.676;7.838;2023-04-05T02:56:55;98948.56;;;-8.53;100.00
54936;BME280;40838;50.676;7.838;2023-04-05T02:59:24;98953.91;;;-8.54;100.00
54936;BME280;40838;50.676;7.838;2023-04-05T03:01:51;98955.94;;;-8.67;100.00
54936;BME280;40838;50.676;7.838;2023-04-05T03:04:23;98951.06;;;-8.70;100.00
54936;BME280;40838;50.676;7.838;2023-04-05T03:06:54;98954.31;;;-8.68;100.00
54936;BME280;40838;50.676;7.838;2023-04-05T03:09:24;98946.84;;;-8.62;100.00
54936;BME280;40838;50.676;7.838;2023-04-05T03:12:00;98946.84;;;-8.81;100.00
54936;BME280;40838;50.676;7.838;2023-04-05T03:14:28;98946.16;;;-8.93;100.00
54936;BME280;40838;50.676;7.838;2023-04-05T03:16:57;98949.97;;;-8.87;100.00
54936;BME280;40838;50.676;7.838;2023-04-05T03:19:34;98945.91;;;-8.90;100.00
54936;BME280;40838;50.676;7.838;2023-04-05T03:22:11;98942.66;;;-8.92;100.00
54936;BME280;40838;50.676;7.838;2023-04-05T03:24:40;98950.94;;;-8.79;100.00
54936;BME280;40838;50.676;7.838;2023-04-05T03:27:12;98945.75;;;-8.79;100.00
54936;BME280;40838;50.676;7.838;2023-04-05T03:30:06;98947.28;;;-8.86;100.00
54936;BME280;40838;50.676;7.838;2023-04-05T03:32:38;98946.84;;;-8.81;100.00
54936;BME280;40838;50.676;7.838;2023-04-05T03:35:14;98941.69;;;-8.81;100.00
54936;BME280;40838;50.676;7.838;2023-04-05T03:37:45;98943.88;;;-8.86;100.00
54936;BME280;40838;50.676;7.838;2023-04-05T03:40:14;98940.72;;;-8.90;100.00
54936;BME280;40838;50.676;7.838;2023-04-05T03:42:44;98941.16;;;-8.94;100.00
54936;BME280;40838;50.676;7.838;2023-04-05T03:45:11;98936.25;;;-8.88;100.00
54936;BME280;40838;50.676;7.838;2023-04-05T03:47:37;98939.78;;;-8.79;100.00
54936;BME280;40838;50.676;7.838;2023-04-05T03:50:07;98938.16;;;-8.80;100.00
54936;BME280;40838;50.676;7.838;2023-04-05T03:52:34;98936.94;;;-8.86;100.00
54936;BME280;40838;50.676;7.838;2023-04-05T03:55:04;98930.09;;;-8.58;100.00
54936;BME280;40838;50.676;7.838;2023-04-05T03:57:36;98937.47;;;-8.63;100.00
54936;BME280;40838;50.676;7.838;2023-04-05T04:00:14;98931.44;;;-8.63;100.00
54936;BME280;40838;50.676;7.838;2023-04-05T04:02:42;98937.19;;;-8.60;100.00
54936;BME280;40838;50.676;7.838;2023-04-05T04:05:11;98929.72;;;-8.63;100.00
54936;BME280;40838;50.676;7.838;2023-04-05T04:07:38;98930.22;;;-8.49;100.00
54936;BME280;40838;50.676;7.838;2023-04-05T04:10:07;98924.34;;;-8.52;100.00
54936;BME280;40838;50.676;7.838;2023-04-05T04:12:37;98934.28;;;-8.47;100.00
54936;BME280;40838;50.676;7.838;2023-04-05T04:15:06;98931.69;;;-8.47;100.00
54936;BME280;40838;50.676;7.838;2023-04-05T04:17:43;98928.84;;;-8.44;100.00
54936;BME280;40838;50.676;7.838;2023-04-05T04:20:22;98935.41;;;-8.59;100.00
54936;BME280;40838;50.676;7.838;2023-04-05T04:23:14;98935.00;;;-8.64;100.00
54936;BME280;40838;50.676;7.838;2023-04-05T04:25:55;98939.47;;;-8.66;100.00
54936;BME280;40838;50.676;7.838;2023-04-05T04:28:42;98943.56;;;-8.64;100.00
54936;BME280;40838;50.676;7.838;2023-04-05T04:31:38;98946.16;;;-8.74;100.00
54936;BME280;40838;50.676;7.838;2023-04-05T04:34:26;98934.06;;;-8.73;100.00
54936;BME280;40838;50.676;7.838;2023-04-05T04:37:15;98936.50;;;-8.62;100.00
54936;BME280;40838;50.676;7.838;2023-04-05T04:39:43;98936.63;;;-8.54;100.00
54936;BME280;40838;50.676;7.838;2023-04-05T04:42:35;98938.94;;;-8.51;100.00
54936;BME280;40838;50.676;7.838;2023-04-05T04:45:08;98930.50;;;-8.53;100.00
54936;BME280;40838;50.676;7.838;2023-04-05T04:47:45;98934.00;;;-8.44;100.00
54936;BME280;40838;50.676;7.838;2023-04-05T04:50:51;98934.28;;;-8.47;100.00
54936;BME280;40838;50.676;7.838;2023-04-05T04:53:19;98929.66;;;-8.43;100.00
54936;BME280;40838;50.676;7.838;2023-04-05T04:55:46;98922.84;;;-8.44;100.00
54936;BME280;40838;50.676;7.838;2023-04-05T04:58:16;98930.72;;;-8.36;100.00
54936;BME280;40838;50.676;7.838;2023-04-05T05:00:50;98930.84;;;-8.38;100.00
54936;BME280;40838;50.676;7.838;2023-04-05T05:03:17;98929.94;;;-8.37;100.00
54936;BME280;40838;50.676;7.838;2023-04-05T05:05:48;98928.53;;;-8.31;100.00
54936;BME280;40838;50.676;7.838;2023-04-05T05:08:20;98925.13;;;-8.22;100.00
54936;BME280;40838;50.676;7.838;2023-04-05T05:10:49;98932.94;;;-8.14;100.00
54936;BME280;40838;50.676;7.838;2023-04-05T05:13:16;98931.09;;;-7.84;100.00
54936;BME280;40838;50.676;7.838;2023-04-05T05:15:43;98925.09;;;-7.39;100.00
54936;BME280;40838;50.676;7.838;2023-04-05T05:18:12;98929.94;;;-7.72;100.00
54936;BME280;40838;50.676;7.838;2023-04-05T05:20:39;98928.56;;;-8.03;100.00
54936;BME280;40838;50.676;7.838;2023-04-05T05:23:07;98926.97;;;-8.04;100.00
54936;BME280;40838;50.676;7.838;2023-04-05T05:25:34;98927.09;;;-8.06;100.00
54936;BME280;40838;50.676;7.838;2023-04-05T05:28:01;98934.31;;;-8.10;100.00
54936;BME280;40838;50.676;7.838;2023-04-05T05:30:28;98929.25;;;-8.01;100.00
54936;BME280;40838;50.676;7.838;2023-04-05T05:32:56;98932.88;;;-7.94;100.00
54936;BME280;40838;50.676;7.838;2023-04-05T05:35:24;98934.84;;;-7.78;100.00
54936;BME280;40838;50.676;7.838;2023-04-05T05:37:52;98933.38;;;-7.81;100.00
54936;BME280;40838;50.676;7.838;2023-04-05T05:40:18;98936.03;;;-7.73;100.00
54936;BME280;40838;50.676;7.838;2023-04-05T05:42:45;98931.25;;;-7.68;100.00
54936;BME280;40838;50.676;7.838;2023-04-05T05:45:12;98925.59;;;-7.35;100.00
54936;BME280;40838;50.676;7.838;2023-04-05T05:47:39;98928.41;;;-5.38;100.00
54936;BME280;40838;50.676;7.838;2023-04-05T05:50:07;98920.28;;;-4.37;100.00
54936;BME280;40838;50.676;7.838;2023-04-05T05:52:35;98912.69;;;-3.60;100.00
54936;BME280;40838;50.676;7.838;2023-04-05T05:55:03;98910.16;;;-2.76;100.00
54936;BME280;40838;50.676;7.838;2023-04-05T05:57:29;98915.09;;;-2.14;100.00
54936;BME280;40838;50.676;7.838;2023-04-05T05:59:56;98913.47;;;-0.63;97.35
54936;BME280;40838;50.676;7.838;2023-04-05T06:02:23;98918.28;;;1.26;76.55
54936;BME280;40838;50.676;7.838;2023-04-05T06:04:50;98918.66;;;1.76;67.09
54936;BME280;40838;50.676;7.838;2023-04-05T06:07:17;98912.16;;;2.50;55.51
54936;BME280;40838;50.676;7.838;2023-04-05T06:09:45;98905.34;;;3.13;54.40
54936;BME280;40838;50.676;7.838;2023-04-05T06:12:12;98901.25;;;4.71;47.42
54936;BME280;40838;50.676;7.838;2023-04-05T06:14:38;98905.22;;;4.61;46.40
54936;BME280;40838;50.676;7.838;2023-04-05T06:17:05;98905.88;;;3.65;51.47
54936;BME280;40838;50.676;7.838;2023-04-05T06:19:32;98909.31;;;2.90;48.34
54936;BME280;40838;50.676;7.838;2023-04-05T06:21:59;98912.44;;;2.74;52.35
54936;BME280;40838;50.676;7.838;2023-04-05T06:24:26;98912.88;;;3.52;49.82
54936;BME280;40838;50.676;7.838;2023-04-05T06:26:57;98915.00;;;3.62;48.98
54936;BME280;40838;50.676;7.838;2023-04-05T06:29:24;98907.63;;;5.05;44.62
54936;BME280;40838;50.676;7.838;2023-04-05T06:31:51;98912.06;;;4.14;45.44
54936;BME280;40838;50.676;7.838;2023-04-05T06:34:18;98906.69;;;5.65;41.41
54936;BME280;40838;50.676;7.838;2023-04-05T06:36:45;98915.31;;;3.54;48.60
54936;BME280;40838;50.676;7.838;2023-04-05T06:39:12;98917.00;;;4.77;44.44
54936;BME280;40838;50.676;7.838;2023-04-05T06:41:39;98913.81;;;4.02;44.85
54936;BME280;40838;50.676;7.838;2023-04-05T06:44:07;98912.50;;;3.92;45.37
54936;BME280;40838;50.676;7.838;2023-04-05T06:46:34;98901.75;;;4.61;42.33
54936;BME280;40838;50.676;7.838;2023-04-05T06:49:01;98896.88;;;6.53;37.34
54936;BME280;40838;50.676;7.838;2023-04-05T06:51:28;98902.63;;;6.09;37.82
54936;BME280;40838;50.676;7.838;2023-04-05T06:53:55;98904.56;;;6.14;35.97
54936;BME280;40838;50.676;7.838;2023-04-05T06:56:22;98907.19;;;5.08;37.33
54936;BME280;40838;50.676;7.838;2023-04-05T06:58:49;98902.84;;;6.08;37.76
54936;BME280;40838;50.676;7.838;2023-04-05T07:01:17;98899.72;;;6.51;35.64
54936;BME280;40838;50.676;7.838;2023-04-05T07:03:44;98897.34;;;7.79;34.78
54936;BME280;40838;50.676;7.838;2023-04-05T07:06:11;98902.56;;;6.33;35.66
54936;BME280;40838;50.676;7.838;2023-04-05T07:08:38;98912.94;;;4.08;39.80
54936;BME280;40838;50.676;7.838;2023-04-05T07:11:05;98905.41;;;4.11;41.07
54936;BME280;40838;50.676;7.838;2023-04-05T07:13:31;98908.75;;;4.85;40.21
54936;BME280;40838;50.676;7.838;2023-04-05T07:15:59;98904.78;;;5.06;39.90
54936;BME280;40838;50.676;7.838;2023-04-05T07:18:27;98896.06;;;5.06;40.54
54936;BME280;40838;50.676;7.838;2023-04-05T07:20:56;98902.09;;;2.79;42.06
54936;BME280;40838;50.676;7.838;2023-04-05T07:23:26;98899.09;;;2.24;49.12
54936;BME280;40838;50.676;7.838;2023-04-05T07:25:53;98908.19;;;1.56;49.53
54936;BME280;40838;50.676;7.838;2023-04-05T07:28:20;98909.00;;;2.28;48.26
54936;BME280;40838;50.676;7.838;2023-04-05T07:30:47;98908.69;;;2.05;48.66
54936;BME280;40838;50.676;7.838;2023-04-05T07:33:15;98907.09;;;2.55;48.68
54936;BME280;40838;50.676;7.838;2023-04-05T07:35:43;98895.75;;;3.43;44.27
54936;BME280;40838;50.676;7.838;2023-04-05T07:38:10;98899.69;;;2.32;49.26
54936;BME280;40838;50.676;7.838;2023-04-05T07:40:37;98897.38;;;2.56;48.08
54936;BME280;40838;50.676;7.838;2023-04-05T07:43:04;98902.63;;;2.56;48.38
54936;BME280;40838;50.676;7.838;2023-04-05T07:45:30;98894.38;;;4.81;42.75
54936;BME280;40838;50.676;7.838;2023-04-05T07:47:57;98894.16;;;3.42;45.36
54936;BME280;40838;50.676;7.838;2023-04-05T07:50:26;98893.03;;;2.75;45.98
54936;BME280;40838;50.676;7.838;2023-04-05T07:52:54;98889.94;;;3.96;42.54
54936;BME280;40838;50.676;7.838;2023-04-05T07:55:21;98881.19;;;3.41;45.54
54936;BME280;40838;50.676;7.838;2023-04-05T07:57:48;98883.09;;;2.77;47.34
54936;BME280;40838;50.676;7.838;2023-04-05T08:00:15;98889.84;;;3.23;44.48
54936;BME280;40838;50.676;7.838;2023-04-05T08:02:42;98891.78;;;3.96;44.62
54936;BME280;40838;50.676;7.838;2023-04-05T08:05:09;98886.34;;;3.04;43.68
54936;BME280;40838;50.676;7.838;2023-04-05T08:07:36;98884.31;;;2.74;45.40
54936;BME280;40838;50.676;7.838;2023-04-05T08:10:05;98884.28;;;3.56;43.17
54936;BME280;40838;50.676;7.838;2023-04-05T08:12:33;98890.81;;;2.72;44.56
54936;BME280;40838;50.676;7.838;2023-04-05T08:15:00;98887.25;;;2.91;42.45
54936;BME280;40838;50.676;7.838;2023-04-05T08:17:27;98892.34;;;1.96;46.81
54936;BME280;40838;50.676;7.838;2023-04-05T08:19:54;98885.06;;;3.13;44.50
54936;BME280;40838;50.676;7.838;2023-04-05T08:22:21;98882.97;;;4.69;40.66
54936;BME280;40838;50.676;7.838;2023-04-05T08:24:48;98877.94;;;5.33;36.86
54936;BME280;40838;50.676;7.838;2023-04-05T08:27:16;98879.78;;;4.18;38.50
54936;BME280;40838;50.676;7.838;2023-04-05T08:29:43;98877.38;;;5.54;36.77
54936;BME280;40838;50.676;7.838;2023-04-05T08:32:10;98870.47;;;4.16;39.63
54936;BME280;40838;50.676;7.838;2023-04-05T08:34:37;98873.69;;;3.99;39.44
54936;BME280;40838;50.676;7.838;2023-04-05T08:37:04;98876.28;;;4.55;38.55
54936;BME280;40838;50.676;7.838;2023-04-05T08:39:33;98882.34;;;4.07;38.85
54936;BME280;40838;50.676;7.838;2023-04-05T08:42:03;98878.03;;;5.03;38.47
54936;BME280;40838;50.676;7.838;2023-04-05T08:44:35;98870.56;;;6.06;34.69
54936;BME280;40838;50.676;7.838;2023-04-05T08:47:03;98867.91;;;6.06;35.84
54936;BME280;40838;50.676;7.838;2023-04-05T08:49:30;98860.50;;;6.19;35.99
54936;BME280;40838;50.676;7.838;2023-04-05T08:51:59;98867.59;;;6.31;36.89
54936;BME280;40838;50.676;7.838;2023-04-05T08:54:26;98858.00;;;7.04;33.81
54936;BME280;40838;50.676;7.838;2023-04-05T08:56:53;98864.72;;;5.92;34.23
54936;BME280;40838;50.676;7.838;2023-04-05T08:59:24;98866.94;;;4.22;37.54
54936;BME280;40838;50.676;7.838;2023-04-05T09:01:53;98880.19;;;3.17;40.22
54936;BME280;40838;50.676;7.838;2023-04-05T09:04:22;98874.94;;;2.53;40.57
54936;BME280;40838;50.676;7.838;2023-04-05T09:06:50;98856.56;;;5.23;37.98
54936;BME280;40838;50.676;7.838;2023-04-05T09:09:19;98860.44;;;3.69;37.80
54936;BME280;40838;50.676;7.838;2023-04-05T09:11:47;98863.34;;;5.19;36.43
54936;BME280;40838;50.676;7.838;2023-04-05T09:14:14;98859.22;;;5.46;35.01
54936;BME280;40838;50.676;7.838;2023-04-05T09:16:42;98864.69;;;4.07;37.08
54936;BME280;40838;50.676;7.838;2023-04-05T09:19:10;98849.69;;;6.21;33.55
54936;BME280;40838;50.676;7.838;2023-04-05T09:22:02;98857.25;;;3.86;36.97
54936;BME280;40838;50.676;7.838;2023-04-05T09:24:36;98847.63;;;5.24;35.91
54936;BME280;40838;50.676;7.838;2023-04-05T09:27:07;98857.41;;;5.35;33.75
54936;BME280;40838;50.676;7.838;2023-04-05T09:29:34;98852.88;;;5.00;36.83
54936;BME280;40838;50.676;7.838;2023-04-05T09:32:04;98856.06;;;4.90;36.29
54936;BME280;40838;50.676;7.838;2023-04-05T09:34:33;98859.28;;;3.84;38.51
54936;BME280;40838;50.676;7.838;2023-04-05T09:37:01;98848.38;;;5.95;35.56
54936;BME280;40838;50.676;7.838;2023-04-05T09:39:29;98853.94;;;4.27;36.43
54936;BME280;40838;50.676;7.838;2023-04-05T09:42:04;98860.81;;;3.29;42.22
54936;BME280;40838;50.676;7.838;2023-04-05T09:44:50;98853.34;;;4.97;35.89
54936;BME280;40838;50.676;7.838;2023-04-05T09:47:18;98849.22;;;5.25;35.81
54936;BME280;40838;50.676;7.838;2023-04-05T09:49:50;98852.75;;;5.07;35.02
54936;BME280;40838;50.676;7.838;2023-04-05T09:52:21;98855.44;;;5.42;33.44
54936;BME280;40838;50.676;7.838;2023-04-05T09:54:50;98845.94;;;5.81;35.96
54936;BME280;40838;50.676;7.838;2023-04-05T09:57:18;98849.91;;;5.91;34.57
54936;BME280;40838;50.676;7.838;2023-04-05T09:59:45;98843.06;;;6.64;32.12
54936;BME280;40838;50.676;7.838;2023-04-05T10:02:12;98843.28;;;4.34;36.88
54936;BME280;40838;50.676;7.838;2023-04-05T10:04:39;98832.13;;;4.50;35.89
54936;BME280;40838;50.676;7.838;2023-04-05T10:07:09;98830.03;;;4.94;35.08
54936;BME280;40838;50.676;7.838;2023-04-05T10:09:38;98827.97;;;5.43;34.80
54936;BME280;40838;50.676;7.838;2023-04-05T10:12:05;98833.00;;;4.86;34.87
54936;BME280;40838;50.676;7.838;2023-04-05T10:14:32;98823.25;;;7.73;31.31
54936;BME280;40838;50.676;7.838;2023-04-05T10:17:07;98827.13;;;4.84;34.53
54936;BME280;40838;50.676;7.838;2023-04-05T10:19:44;98830.97;;;3.36;37.42
54936;BME280;40838;50.676;7.838;2023-04-05T10:22:22;98827.00;;;4.79;36.52
54936;BME280;40838;50.676;7.838;2023-04-05T10:24:53;98816.34;;;6.20;33.72
54936;BME280;40838;50.676;7.838;2023-04-05T10:27:28;98816.38;;;6.08;36.32
54936;BME280;40838;50.676;7.838;2023-04-05T10:30:03;98815.34;;;5.33;36.56
54936;BME280;40838;50.676;7.838;2023-04-05T10:33:00;98817.44;;;4.06;36.91
54936;BME280;40838;50.676;7.838;2023-04-05T10:35:33;98807.63;;;6.08;33.91
54936;BME280;40838;50.676;7.838;2023-04-05T10:38:11;98805.91;;;7.65;35.46
54936;BME280;40838;50.676;7.838;2023-04-05T10:40:45;98812.50;;;7.07;30.34
54936;BME280;40838;50.676;7.838;2023-04-05T10:43:15;98813.38;;;5.64;32.83
54936;BME280;40838;50.676;7.838;2023-04-05T10:45:43;98816.69;;;6.86;31.10
54936;BME280;40838;50.676;7.838;2023-04-05T10:48:20;98806.59;;;7.77;31.20
54936;BME280;40838;50.676;7.838;2023-04-05T10:50:49;98799.91;;;6.18;33.36
54936;BME280;40838;50.676;7.838;2023-04-05T10:53:19;98809.91;;;6.44;34.65
54936;BME280;40838;50.676;7.838;2023-04-05T10:55:48;98795.84;;;7.89;32.89
54936;BME280;40838;50.676;7.838;2023-04-05T10:58:16;98796.25;;;9.16;30.73
54936;BME280;40838;50.676;7.838;2023-04-05T11:00:44;98796.13;;;7.10;32.00
54936;BME280;40838;50.676;7.838;2023-04-05T11:03:40;98791.97;;;6.80;32.43
54936;BME280;40838;50.676;7.838;2023-04-05T11:06:31;98787.59;;;6.40;32.97
54936;BME280;40838;50.676;7.838;2023-04-05T11:09:09;98799.25;;;3.86;39.06
54936;BME280;40838;50.676;7.838;2023-04-05T11:11:38;98799.63;;;5.27;36.38
54936;BME280;40838;50.676;7.838;2023-04-05T11:14:17;98786.66;;;6.97;35.26
54936;BME280;40838;50.676;7.838;2023-04-05T11:16:46;98779.75;;;7.30;34.03
54936;BME280;40838;50.676;7.838;2023-04-05T11:19:15;98775.66;;;7.22;34.50
54936;BME280;40838;50.676;7.838;2023-04-05T11:21:42;98777.41;;;6.03;35.57
54936;BME280;40838;50.676;7.838;2023-04-05T11:24:12;98789.13;;;4.31;38.73
54936;BME280;40838;50.676;7.838;2023-04-05T11:26:54;98783.78;;;3.71;40.67
54936;BME280;40838;50.676;7.838;2023-04-05T11:29:51;98777.19;;;5.53;39.58
54936;BME280;40838;50.676;7.838;2023-04-05T11:32:19;98781.25;;;4.43;42.81
54936;BME280;40838;50.676;7.838;2023-04-05T11:34:57;98777.94;;;4.36;42.80
54936;BME280;40838;50.676;7.838;2023-04-05T11:37:53;98783.53;;;4.09;40.59
54936;BME280;40838;50.676;7.838;2023-04-05T11:40:25;98778.44;;;3.96;40.54
54936;BME280;40838;50.676;7.838;2023-04-05T11:43:00;98772.56;;;4.54;40.38
54936;BME280;40838;50.676;7.838;2023-04-05T11:45:29;98770.91;;;4.30;41.63
54936;BME280;40838;50.676;7.838;2023-04-05T11:47:58;98762.03;;;4.54;39.71
54936;BME280;40838;50.676;7.838;2023-04-05T11:50:27;98758.97;;;5.16;36.84
54936;BME280;40838;50.676;7.838;2023-04-05T11:53:08;98754.00;;;5.31;40.65
54936;BME280;40838;50.676;7.838;2023-04-05T11:55:37;98764.03;;;4.94;42.07
54936;BME280;40838;50.676;7.838;2023-04-05T11:58:12;98759.34;;;3.82;39.94
54936;BME280;40838;50.676;7.838;2023-04-05T12:00:39;98760.16;;;2.59;42.06
54936;BME280;40838;50.676;7.838;2023-04-05T12:03:10;98753.44;;;3.68;39.12
54936;BME280;40838;50.676;7.838;2023-04-05T12:05:49;98757.69;;;4.72;37.78
54936;BME280;40838;50.676;7.838;2023-04-05T12:08:16;98759.03;;;4.20;41.48
54936;BME280;40838;50.676;7.838;2023-04-05T12:10:52;98757.22;;;5.33;38.38
54936;BME280;40838;50.676;7.838;2023-04-05T12:13:25;98739.69;;;5.04;37.44
54936;BME280;40838;50.676;7.838;2023-04-05T12:15:51;98738.72;;;4.09;40.47
54936;BME280;40838;50.676;7.838;2023-04-05T12:18:18;98735.22;;;5.56;40.32
54936;BME280;40838;50.676;7.838;2023-04-05T12:20:45;98729.56;;;4.54;38.83
54936;BME280;40838;50.676;7.838;2023-04-05T12:23:13;98731.97;;;4.55;40.70
54936;BME280;40838;50.676;7.838;2023-04-05T12:25:46;98745.19;;;3.95;39.50
54936;BME280;40838;50.676;7.838;2023-04-05T12:28:13;98734.09;;;3.56;41.11
54936;BME280;40838;50.676;7.838;2023-04-05T12:30:47;98725.81;;;2.79;42.67
54936;BME280;40838;50.676;7.838;2023-04-05T12:33:14;98728.63;;;3.21;43.25
54936;BME280;40838;50.676;7.838;2023-04-05T12:35:41;98730.56;;;4.11;41.29
54936;BME280;40838;50.676;7.838;2023-04-05T12:38:08;98724.75;;;4.20;42.79
54936;BME280;40838;50.676;7.838;2023-04-05T12:40:36;98724.97;;;4.19;40.49
54936;BME280;40838;50.676;7.838;2023-04-05T12:43:08;98728.41;;;3.59;43.62
54936;BME280;40838;50.676;7.838;2023-04-05T12:45:35;98719.94;;;3.87;41.36
54936;BME280;40838;50.676;7.838;2023-04-05T12:48:08;98716.66;;;3.92;39.80
54936;BME280;40838;50.676;7.838;2023-04-05T12:50:41;98714.22;;;3.90;40.62
54936;BME280;40838;50.676;7.838;2023-04-05T12:53:08;98713.28;;;3.85;42.12
54936;BME280;40838;50.676;7.838;2023-04-05T12:55:41;98702.59;;;4.10;42.32
54936;BME280;40838;50.676;7.838;2023-04-05T12:58:10;98708.63;;;4.29;42.47
54936;BME280;40838;50.676;7.838;2023-04-05T13:00:37;98710.25;;;4.30;42.96
54936;BME280;40838;50.676;7.838;2023-04-05T13:03:04;98711.41;;;3.73;40.65
54936;BME280;40838;50.676;7.838;2023-04-05T13:05:31;98703.03;;;4.37;40.29
54936;BME280;40838;50.676;7.838;2023-04-05T13:07:58;98702.25;;;4.48;38.54
54936;BME280;40838;50.676;7.838;2023-04-05T13:10:25;98699.16;;;4.86;40.53
54936;BME280;40838;50.676;7.838;2023-04-05T13:12:52;98698.41;;;3.90;39.51
54936;BME280;40838;50.676;7.838;2023-04-05T13:15:20;98700.44;;;3.58;42.35
54936;BME280;40838;50.676;7.838;2023-04-05T13:17:47;98701.09;;;4.02;42.89
54936;BME280;40838;50.676;7.838;2023-04-05T13:20:17;98690.19;;;4.52;41.45